createdAt,value
2019-03-21T00:01:33.532Z,99.00
2019-03-21T00:04:05.479Z,98.80
2019-03-21T00:06:34.366Z,98.70
2019-03-21T00:09:06.591Z,98.80
2019-03-21T00:11:55.589Z,98.60
2019-03-21T00:14:39.793Z,98.60
2019-03-21T00:17:08.018Z,98.50
2019-03-21T00:19:36.408Z,98.50
2019-03-21T00:22:11.424Z,98.60
2019-03-21T00:24:39.598Z,98.50
2019-03-21T00:27:08.475Z,98.60
2019-03-21T00:29:37.515Z,98.60
2019-03-21T00:32:05.545Z,98.60
2019-03-21T00:34:34.610Z,98.60
2019-03-21T00:37:02.892Z,98.60
2019-03-21T00:39:33.055Z,98.60
2019-03-21T00:42:01.364Z,98.50
2019-03-21T00:44:29.801Z,98.40
2019-03-21T00:46:59.108Z,98.40
2019-03-21T00:49:27.233Z,98.40
2019-03-21T00:51:55.313Z,98.60
2019-03-21T00:54:25.838Z,98.50
2019-03-21T00:56:53.947Z,98.40
2019-03-21T00:59:22.265Z,98.40
2019-03-21T01:01:50.514Z,98.40
2019-03-21T01:04:19.139Z,98.50
2019-03-21T01:06:47.759Z,98.50
2019-03-21T01:09:16.412Z,98.40
2019-03-21T01:11:44.785Z,98.40
2019-03-21T01:14:13.466Z,98.50
2019-03-21T01:16:42.165Z,98.50
2019-03-21T01:19:10.549Z,98.60
2019-03-21T01:21:38.735Z,98.50
2019-03-21T01:24:07.304Z,98.60
2019-03-21T01:26:35.785Z,98.70
2019-03-21T01:29:03.998Z,98.70
2019-03-21T01:31:33.026Z,98.80
2019-03-21T01:34:01.363Z,98.90
2019-03-21T01:36:29.830Z,99.00
2019-03-21T01:38:58.624Z,99.10
2019-03-21T01:41:26.741Z,99.10
2019-03-21T01:43:55.265Z,99.10
2019-03-21T01:46:23.375Z,99.20
2019-03-21T01:48:51.777Z,99.30
2019-03-21T01:51:20.437Z,99.10
2019-03-21T01:53:49.093Z,99.40
2019-03-21T01:56:17.264Z,99.50
2019-03-21T01:58:45.291Z,99.50
2019-03-21T02:01:13.764Z,99.50
2019-03-21T02:03:42.701Z,99.50
2019-03-21T02:06:11.850Z,99.50
2019-03-21T02:08:40.134Z,99.50
2019-03-21T02:11:08.910Z,99.50
2019-03-21T02:13:37.946Z,99.60
2019-03-21T02:16:06.050Z,99.40
2019-03-21T02:18:34.129Z,99.40
2019-03-21T02:21:02.683Z,99.40
2019-03-21T02:23:31.256Z,99.40
2019-03-21T02:26:00.382Z,99.50
2019-03-21T02:28:28.734Z,99.50
2019-03-21T02:30:56.793Z,99.50
2019-03-21T02:33:27.676Z,99.50
2019-03-21T02:35:56.437Z,99.50
2019-03-21T02:38:25.507Z,99.60
2019-03-21T02:40:54.172Z,99.50
2019-03-21T02:43:23.256Z,99.50
2019-03-21T02:45:52.615Z,99.50
2019-03-21T02:48:22.557Z,99.50
2019-03-21T02:50:50.939Z,99.40
2019-03-21T02:53:19.309Z,99.30
2019-03-21T02:55:47.336Z,99.30
2019-03-21T02:58:16.341Z,99.30
2019-03-21T03:00:44.745Z,99.20
2019-03-21T03:03:13.597Z,99.20
2019-03-21T03:05:41.991Z,99.10
2019-03-21T03:08:10.373Z,99.10
2019-03-21T03:10:44.483Z,99.10
2019-03-21T03:13:12.645Z,99.00
2019-03-21T03:15:40.891Z,99.00
2019-03-21T03:18:09.540Z,99.00
2019-03-21T03:20:37.619Z,99.00
2019-03-21T03:23:05.723Z,99.00
2019-03-21T03:25:34.114Z,98.90
2019-03-21T03:28:05.864Z,98.90
2019-03-21T03:30:34.190Z,98.90
2019-03-21T03:33:02.974Z,98.90
2019-03-21T03:35:31.464Z,98.90
2019-03-21T03:37:59.547Z,98.80
2019-03-21T03:40:31.060Z,98.80
2019-03-21T03:42:59.555Z,98.70
2019-03-21T03:45:37.459Z,98.70
2019-03-21T03:48:00.117Z,98.70
2019-03-21T03:50:28.840Z,98.70
2019-03-21T03:52:57.462Z,98.70
2019-03-21T03:55:26.166Z,98.60
2019-03-21T03:57:55.318Z,98.50
2019-03-21T04:00:23.524Z,98.50
2019-03-21T04:02:52.307Z,98.50
2019-03-21T04:05:20.986Z,98.40
2019-03-21T04:07:50.852Z,98.40
2019-03-21T04:10:25.809Z,98.40
2019-03-21T04:12:54.217Z,98.40
2019-03-21T04:15:25.833Z,98.30
2019-03-21T04:17:55.348Z,98.30
2019-03-21T04:20:27.345Z,98.20
2019-03-21T04:22:56.349Z,98.20
2019-03-21T04:25:28.104Z,98.20
2019-03-21T04:27:57.253Z,98.20
2019-03-21T04:30:25.816Z,98.20
2019-03-21T04:32:54.665Z,98.20
2019-03-21T04:35:23.638Z,98.40
2019-03-21T04:37:54.065Z,98.30
2019-03-21T04:40:22.236Z,98.10
2019-03-21T04:42:51.248Z,98.00
2019-03-21T04:45:20.235Z,98.20
2019-03-21T04:47:50.361Z,98.20
2019-03-21T04:50:21.340Z,98.10
2019-03-21T04:52:49.946Z,98.10
2019-03-21T04:55:18.606Z,98.10
2019-03-21T04:57:47.383Z,98.20
2019-03-21T05:00:18.432Z,98.00
2019-03-21T05:02:47.065Z,98.00
2019-03-21T05:05:15.089Z,98.00
2019-03-21T05:07:43.956Z,97.90
2019-03-21T05:10:16.986Z,97.90
2019-03-21T05:12:48.794Z,97.90
2019-03-21T05:15:20.487Z,97.80
2019-03-21T05:17:49.558Z,97.70
2019-03-21T05:20:20.820Z,97.80
2019-03-21T05:22:50.516Z,97.90
2019-03-21T05:25:22.433Z,97.90
2019-03-21T05:27:51.506Z,97.80
2019-03-21T05:30:24.072Z,97.80
2019-03-21T05:32:54.824Z,97.80
2019-03-21T05:35:24.305Z,97.70
2019-03-21T05:37:53.291Z,97.80
2019-03-21T05:40:22.242Z,97.90
2019-03-21T05:42:58.101Z,97.90
2019-03-21T05:45:30.175Z,97.80
2019-03-21T05:47:59.890Z,97.90
2019-03-21T05:50:30.123Z,97.90
2019-03-21T05:52:58.856Z,97.80
2019-03-21T05:55:27.520Z,97.80
2019-03-21T05:57:57.370Z,97.80
2019-03-21T06:00:33.758Z,97.80
2019-03-21T06:03:02.420Z,97.80
2019-03-21T06:05:30.931Z,97.80
2019-03-21T06:08:09.559Z,97.80
2019-03-21T06:10:38.648Z,97.80
2019-03-21T06:13:08.019Z,97.80
2019-03-21T06:15:37.893Z,97.80
2019-03-21T06:18:42.015Z,97.70
2019-03-21T06:21:18.507Z,97.60
2019-03-21T06:24:13.094Z,97.70
2019-03-21T06:26:53.394Z,97.60
2019-03-21T06:29:22.281Z,97.80
2019-03-21T06:31:50.960Z,97.80
2019-03-21T06:34:20.065Z,97.80
2019-03-21T06:36:50.352Z,98.00
2019-03-21T06:39:19.315Z,97.90
2019-03-21T06:41:48.393Z,98.30
2019-03-21T06:44:17.894Z,98.00
2019-03-21T06:46:49.724Z,98.10
2019-03-21T06:49:16.791Z,98.00
2019-03-21T06:51:45.253Z,98.00
2019-03-21T06:54:13.684Z,98.00
2019-03-21T06:56:42.096Z,98.00
2019-03-21T06:59:10.817Z,98.00
2019-03-21T07:01:40.019Z,98.10
2019-03-21T07:04:09.045Z,98.00
2019-03-21T07:06:37.887Z,98.10
2019-03-21T07:09:07.802Z,98.10
2019-03-21T07:11:36.802Z,98.10
2019-03-21T07:14:05.247Z,98.10
2019-03-21T07:16:34.053Z,98.30
2019-03-21T07:19:03.503Z,98.30
2019-03-21T07:21:32.172Z,98.30
2019-03-21T07:24:02.072Z,98.30
2019-03-21T07:26:31.231Z,98.30
2019-03-21T07:29:02.422Z,98.40
2019-03-21T07:31:31.204Z,98.50
2019-03-21T07:33:59.612Z,98.50
2019-03-21T07:36:28.914Z,98.50
2019-03-21T07:38:58.084Z,98.50
2019-03-21T07:41:29.625Z,98.50
2019-03-21T07:43:58.509Z,98.50
2019-03-21T07:46:28.227Z,98.50
2019-03-21T07:48:56.641Z,98.60
2019-03-21T07:51:25.740Z,98.70
2019-03-21T07:53:53.962Z,98.70
2019-03-21T07:56:24.950Z,98.70
2019-03-21T07:58:53.210Z,98.70
2019-03-21T08:01:22.477Z,98.70
2019-03-21T08:03:50.704Z,98.80
2019-03-21T08:06:19.859Z,98.80
2019-03-21T08:08:51.034Z,98.80
2019-03-21T08:11:20.661Z,98.80
2019-03-21T08:13:49.750Z,98.80
2019-03-21T08:16:18.220Z,99.20
2019-03-21T08:18:46.522Z,98.90
2019-03-21T08:21:15.347Z,98.90
2019-03-21T08:23:44.367Z,98.90
2019-03-21T08:26:13.212Z,98.90
2019-03-21T08:28:42.149Z,99.00
2019-03-21T08:31:15.789Z,99.00
2019-03-21T08:33:44.439Z,99.00
2019-03-21T08:36:13.699Z,99.10
2019-03-21T08:38:44.376Z,99.10
2019-03-21T08:41:13.272Z,99.20
2019-03-21T08:43:42.280Z,99.20
2019-03-21T08:46:11.031Z,99.30
2019-03-21T08:48:40.233Z,99.30
2019-03-21T08:51:09.013Z,99.40
2019-03-21T08:53:37.823Z,99.30
2019-03-21T08:56:07.093Z,99.40
2019-03-21T08:58:36.528Z,99.30
2019-03-21T09:01:05.713Z,99.50
2019-03-21T09:03:34.185Z,99.50
2019-03-21T09:06:02.268Z,99.50
2019-03-21T09:08:30.636Z,99.50
2019-03-21T09:11:00.103Z,99.50
2019-03-21T09:13:29.439Z,99.60
2019-03-21T09:15:57.721Z,99.60
2019-03-21T09:18:27.142Z,99.60
2019-03-21T09:20:55.786Z,99.60
2019-03-21T09:23:24.840Z,99.50
2019-03-21T09:25:53.606Z,99.60
2019-03-21T09:28:22.078Z,99.40
2019-03-21T09:30:50.818Z,99.60
2019-03-21T09:33:19.284Z,99.60
2019-03-21T09:35:47.952Z,99.60
2019-03-21T09:38:15.871Z,99.50
2019-03-21T09:40:46.732Z,99.80
2019-03-21T09:43:15.562Z,99.60
2019-03-21T09:45:44.316Z,99.60
2019-03-21T09:48:12.430Z,99.50
2019-03-21T09:50:43.841Z,99.60
2019-03-21T09:53:12.099Z,99.60
2019-03-21T09:55:43.322Z,99.60
2019-03-21T09:58:11.527Z,99.60
2019-03-21T10:00:39.626Z,99.60
2019-03-21T10:03:07.834Z,99.50
2019-03-21T10:05:36.160Z,99.50
2019-03-21T10:08:04.797Z,99.50
2019-03-21T10:10:33.058Z,99.40
2019-03-21T10:13:01.518Z,99.50
2019-03-21T10:15:29.713Z,99.40
2019-03-21T10:17:57.863Z,99.30
2019-03-21T10:20:26.312Z,99.20
2019-03-21T10:22:54.987Z,99.00
2019-03-21T10:25:22.979Z,98.70
2019-03-21T10:27:51.268Z,98.70
2019-03-21T10:30:34.248Z,98.70
2019-03-21T10:33:02.940Z,98.70
2019-03-21T10:35:32.756Z,98.70
2019-03-21T10:38:01.541Z,98.80
2019-03-21T10:40:29.816Z,98.80
2019-03-21T10:42:57.989Z,98.80
2019-03-21T10:45:26.782Z,98.80
2019-03-21T10:47:56.332Z,98.80
2019-03-21T10:50:29.550Z,98.80
2019-03-21T10:52:59.640Z,98.80
2019-03-21T10:55:28.369Z,98.80
2019-03-21T10:57:56.785Z,98.80
2019-03-21T11:00:26.291Z,98.80
2019-03-21T11:02:54.714Z,98.80
2019-03-21T11:05:23.443Z,98.80
2019-03-21T11:07:51.624Z,98.80
2019-03-21T11:10:20.588Z,98.80
2019-03-21T11:12:50.054Z,98.60
2019-03-21T11:15:18.413Z,98.50
2019-03-21T11:17:47.073Z,98.50
2019-03-21T11:20:32.981Z,98.40
2019-03-21T11:23:01.509Z,98.40
2019-03-21T11:25:29.965Z,98.40
2019-03-21T11:27:59.329Z,98.40
2019-03-21T11:30:33.284Z,98.40
2019-03-21T11:33:01.706Z,98.40
2019-03-21T11:36:08.513Z,98.40
2019-03-21T11:39:01.355Z,98.60
2019-03-21T11:42:06.747Z,98.60
2019-03-21T11:44:45.937Z,98.50
2019-03-21T11:47:17.549Z,98.40
2019-03-21T11:49:46.302Z,98.40
2019-03-21T11:52:25.995Z,98.30
2019-03-21T11:54:54.104Z,98.10
2019-03-21T11:57:22.553Z,98.10
2019-03-21T11:59:52.425Z,98.00
2019-03-21T12:02:27.060Z,98.00
2019-03-21T12:04:52.237Z,97.90
2019-03-21T12:07:20.909Z,97.80
2019-03-21T12:09:49.604Z,97.90
2019-03-21T12:12:18.292Z,97.90
2019-03-21T12:14:46.282Z,97.70
2019-03-21T12:17:15.381Z,97.50
2019-03-21T12:23:30.032Z,97.40
2019-03-21T12:25:58.624Z,97.30
2019-03-21T12:28:27.096Z,96.90
2019-03-21T12:30:57.103Z,96.90
2019-03-21T12:33:25.286Z,96.80
2019-03-21T12:35:54.280Z,96.90
2019-03-21T12:38:24.006Z,96.50
2019-03-21T12:40:53.087Z,96.70
2019-03-21T12:43:21.704Z,96.30
2019-03-21T12:45:50.197Z,96.00
2019-03-21T12:48:18.973Z,96.10
2019-03-21T12:50:48.020Z,96.30
2019-03-21T12:53:16.899Z,96.40
2019-03-21T12:55:45.345Z,96.20
2019-03-21T12:58:14.630Z,96.20
2019-03-21T13:00:44.227Z,96.20
2019-03-21T13:03:14.440Z,96.30
2019-03-21T13:05:43.460Z,96.30
2019-03-21T13:08:11.658Z,96.20
2019-03-21T13:10:42.225Z,96.10
2019-03-21T13:13:11.009Z,96.30
2019-03-21T13:15:40.169Z,95.70
2019-03-21T13:18:11.955Z,95.60
2019-03-21T13:20:40.759Z,95.50
2019-03-21T13:23:09.184Z,95.20
2019-03-21T13:25:37.734Z,95.30
2019-03-21T13:28:13.303Z,95.50
2019-03-21T13:30:42.668Z,95.50
2019-03-21T13:34:06.042Z,95.50
2019-03-21T13:36:58.252Z,95.50
2019-03-21T13:39:28.397Z,95.50
2019-03-21T13:42:09.749Z,95.40
2019-03-21T13:45:20.391Z,95.70
2019-03-21T13:47:55.624Z,94.90
2019-03-21T13:50:24.242Z,94.90
2019-03-21T13:53:04.181Z,94.90
2019-03-21T13:55:24.797Z,94.90
2019-03-21T13:57:53.638Z,94.90
2019-03-21T14:00:22.477Z,94.80
2019-03-21T14:02:50.627Z,94.90
2019-03-21T14:05:20.264Z,94.80
2019-03-21T14:07:48.787Z,94.70
2019-03-21T14:10:16.970Z,94.80
2019-03-21T14:12:45.151Z,94.70
2019-03-21T14:15:14.070Z,94.40
2019-03-21T14:17:43.028Z,94.40
2019-03-21T14:20:12.573Z,94.40
2019-03-21T14:22:41.438Z,94.20
2019-03-21T14:25:09.891Z,93.90
2019-03-21T14:31:01.936Z,93.80
2019-03-21T14:33:31.023Z,93.70
2019-03-21T14:35:59.931Z,93.70
2019-03-21T14:38:28.361Z,93.80
2019-03-21T14:40:57.171Z,94.20
2019-03-21T14:43:26.249Z,93.80
2019-03-21T14:45:55.922Z,94.00
2019-03-21T14:48:24.426Z,94.00
2019-03-21T14:50:53.108Z,93.80
2019-03-21T14:53:28.733Z,93.80
2019-03-21T14:56:21.052Z,93.80
2019-03-21T14:58:49.942Z,93.90
2019-03-21T15:01:19.136Z,94.00
2019-03-21T15:03:47.814Z,94.00
2019-03-21T15:06:16.372Z,93.90
2019-03-21T15:08:44.657Z,94.10
2019-03-21T15:11:17.367Z,94.00
2019-03-21T15:13:43.919Z,94.20
2019-03-21T15:16:13.025Z,94.00
2019-03-21T15:18:41.565Z,94.10
2019-03-21T15:21:09.751Z,94.10
2019-03-21T15:23:41.416Z,93.80
2019-03-21T15:26:10.074Z,93.70
2019-03-21T15:29:08.516Z,93.70
2019-03-21T15:31:40.299Z,93.70
2019-03-21T15:34:08.922Z,93.60
2019-03-21T15:36:37.208Z,93.50
2019-03-21T15:39:24.521Z,93.40
2019-03-21T15:41:53.969Z,93.50
2019-03-21T15:44:22.588Z,93.70
2019-03-21T15:46:51.103Z,93.60
2019-03-21T15:49:21.090Z,93.70
2019-03-21T15:51:49.795Z,93.70
2019-03-21T15:54:18.052Z,93.70
2019-03-21T15:56:46.356Z,93.60
2019-03-21T15:59:14.913Z,93.70
2019-03-21T16:01:45.571Z,93.40
2019-03-21T16:04:15.037Z,93.40
2019-03-21T16:06:43.736Z,93.40
2019-03-21T16:09:12.741Z,93.40
2019-03-21T16:11:41.655Z,93.50
2019-03-21T16:14:10.105Z,93.50
2019-03-21T16:16:38.187Z,93.50
2019-03-21T16:19:07.254Z,93.50
2019-03-21T16:21:37.495Z,93.50
2019-03-21T16:24:05.928Z,93.40
2019-03-21T16:26:36.795Z,93.40
2019-03-21T16:29:05.304Z,93.40
2019-03-21T16:31:34.443Z,93.40
2019-03-21T16:34:02.792Z,93.40
2019-03-21T16:36:31.248Z,93.40
2019-03-21T16:38:59.822Z,93.40
2019-03-21T16:41:28.509Z,93.20
2019-03-21T16:43:57.174Z,93.10
2019-03-21T16:46:28.662Z,92.90
2019-03-21T16:48:57.133Z,92.90
2019-03-21T16:51:28.518Z,92.80
2019-03-21T16:53:58.397Z,92.90
2019-03-21T16:56:26.689Z,93.00
2019-03-21T16:58:55.893Z,93.10
2019-03-21T17:01:28.322Z,93.20
2019-03-21T17:03:57.509Z,93.20
2019-03-21T17:06:27.124Z,93.20
2019-03-21T17:08:56.133Z,93.20
2019-03-21T17:11:25.241Z,93.30
2019-03-21T17:13:53.546Z,93.30
2019-03-21T17:16:22.431Z,93.30
2019-03-21T17:18:50.693Z,93.40
2019-03-21T17:21:19.588Z,93.30
2019-03-21T17:23:47.976Z,93.40
2019-03-21T17:26:16.596Z,93.50
2019-03-21T17:28:45.625Z,93.60
2019-03-21T17:31:14.133Z,93.60
2019-03-21T17:33:42.828Z,93.70
2019-03-21T17:36:12.169Z,93.80
2019-03-21T17:38:40.950Z,93.90
2019-03-21T17:41:09.969Z,93.90
2019-03-21T17:43:39.509Z,94.00
2019-03-21T17:46:08.133Z,94.00
2019-03-21T17:48:36.786Z,94.00
2019-03-21T17:51:05.323Z,94.00
2019-03-21T17:53:34.087Z,94.00
2019-03-21T17:56:04.431Z,94.10
2019-03-21T17:58:34.204Z,94.10
2019-03-21T18:01:34.682Z,94.20
2019-03-21T18:04:38.720Z,94.20
2019-03-21T18:08:10.323Z,94.20
2019-03-21T18:11:31.603Z,94.20
2019-03-21T18:14:25.086Z,94.40
2019-03-21T18:17:45.636Z,94.50
2019-03-21T18:20:48.369Z,94.60
2019-03-21T18:23:17.622Z,94.80
2019-03-21T18:25:48.020Z,94.90
2019-03-21T18:28:17.836Z,95.00
2019-03-21T18:30:47.219Z,95.10
2019-03-21T18:33:19.090Z,95.20
2019-03-21T18:35:46.081Z,95.40
2019-03-21T18:38:14.793Z,95.30
2019-03-21T18:40:44.078Z,95.30
2019-03-21T18:43:12.439Z,95.30
2019-03-21T18:45:40.630Z,95.20
2019-03-21T18:48:09.618Z,95.40
2019-03-21T18:50:38.796Z,95.30
2019-03-21T18:53:07.845Z,95.40
2019-03-21T18:55:37.210Z,95.40
2019-03-21T18:58:06.209Z,95.40
2019-03-21T19:00:34.489Z,95.50
2019-03-21T19:03:02.936Z,95.50
2019-03-21T19:05:31.231Z,95.50
2019-03-21T19:07:59.323Z,95.60
2019-03-21T19:10:27.592Z,95.70
2019-03-21T19:12:55.863Z,95.70
2019-03-21T19:15:24.282Z,95.70
2019-03-21T19:17:52.301Z,95.80
2019-03-21T19:20:21.198Z,96.10
2019-03-21T19:22:49.294Z,95.90
2019-03-21T19:25:19.453Z,95.80
2019-03-21T19:27:48.234Z,95.90
2019-03-21T19:30:16.450Z,96.00
2019-03-21T19:32:46.369Z,96.00
2019-03-21T19:35:31.406Z,96.00
2019-03-21T19:37:59.990Z,96.00
2019-03-21T19:40:29.967Z,96.10
2019-03-21T19:43:00.616Z,96.10
2019-03-21T19:45:29.658Z,96.20
2019-03-21T19:47:58.355Z,96.20
2019-03-21T19:50:29.996Z,96.20
2019-03-21T19:52:58.578Z,96.20
2019-03-21T19:55:31.158Z,96.30
2019-03-21T19:57:58.339Z,96.30
2019-03-21T20:00:26.382Z,96.30
2019-03-21T20:02:54.971Z,96.40
2019-03-21T20:05:23.859Z,96.80
2019-03-21T20:07:54.527Z,96.50
2019-03-21T20:10:25.522Z,96.60
2019-03-21T20:12:55.053Z,96.70
2019-03-21T20:15:23.661Z,96.70
2019-03-21T20:17:52.790Z,96.80
2019-03-21T20:20:22.039Z,96.90
2019-03-21T20:22:50.759Z,97.00
2019-03-21T20:25:19.761Z,97.00
2019-03-21T20:27:49.783Z,97.00
2019-03-21T20:30:21.026Z,97.20
2019-03-21T20:32:50.014Z,97.20
2019-03-21T20:35:19.269Z,97.20
2019-03-21T20:37:48.136Z,97.30
2019-03-21T20:40:17.252Z,97.40
2019-03-21T20:42:46.140Z,97.40
2019-03-21T20:45:15.444Z,97.50
2019-03-21T20:47:49.915Z,97.60
2019-03-21T20:50:18.287Z,97.60
2019-03-21T20:52:47.739Z,97.60
2019-03-21T20:55:16.325Z,97.70
2019-03-21T20:57:44.631Z,97.70
2019-03-21T21:00:15.855Z,97.70
2019-03-21T21:02:44.968Z,97.70
2019-03-21T21:05:14.392Z,97.70
2019-03-21T21:07:42.500Z,97.70
2019-03-21T21:10:10.903Z,97.80
2019-03-21T21:12:39.163Z,97.70
2019-03-21T21:15:08.784Z,97.70
2019-03-21T21:17:36.873Z,97.70
2019-03-21T21:20:06.558Z,97.70
2019-03-21T21:22:34.625Z,97.70
2019-03-21T21:25:03.237Z,97.70
2019-03-21T21:27:31.700Z,97.70
2019-03-21T21:30:00.444Z,97.70
2019-03-21T21:32:29.141Z,97.70
2019-03-21T21:34:57.567Z,97.70
2019-03-21T21:37:26.495Z,97.70
2019-03-21T21:39:55.378Z,97.80
2019-03-21T21:42:23.921Z,97.80
2019-03-21T21:44:52.699Z,98.10
2019-03-21T21:47:21.240Z,97.70
2019-03-21T21:49:50.019Z,97.70
2019-03-21T21:52:18.201Z,97.70
2019-03-21T21:54:49.170Z,97.70
2019-03-21T21:57:16.829Z,97.70
2019-03-21T21:59:48.389Z,97.70
2019-03-21T22:02:17.288Z,97.70
2019-03-21T22:04:45.988Z,97.70
2019-03-21T22:07:14.351Z,97.60
2019-03-21T22:09:42.884Z,97.60
2019-03-21T22:12:11.831Z,97.70
2019-03-21T22:14:40.156Z,97.70
2019-03-21T22:17:08.276Z,97.70
2019-03-21T22:19:36.693Z,97.90
2019-03-21T22:22:05.289Z,97.90
2019-03-21T22:24:33.775Z,98.00
2019-03-21T22:27:02.725Z,98.10
2019-03-21T22:29:31.495Z,98.20
2019-03-21T22:32:00.188Z,98.10
2019-03-21T22:34:29.212Z,98.10
2019-03-21T22:36:57.871Z,98.00
2019-03-21T22:39:27.082Z,98.00
2019-03-21T22:41:56.980Z,98.10
2019-03-21T22:44:25.335Z,98.20
2019-03-21T22:46:54.575Z,98.20
2019-03-21T22:49:23.357Z,98.10
2019-03-21T22:51:51.816Z,98.00
2019-03-21T22:54:21.154Z,98.00
2019-03-21T22:56:49.988Z,98.00
2019-03-21T22:59:19.439Z,98.10
2019-03-21T23:01:47.996Z,98.20
2019-03-21T23:04:16.560Z,98.40
2019-03-21T23:06:45.366Z,98.20
2019-03-21T23:09:13.486Z,98.10
2019-03-21T23:11:42.429Z,98.00
2019-03-21T23:14:11.017Z,98.20
2019-03-21T23:16:39.290Z,98.10
2019-03-21T23:19:07.674Z,98.00
2019-03-21T23:21:36.111Z,97.90
2019-03-21T23:24:05.672Z,97.90
2019-03-21T23:26:34.327Z,97.80
2019-03-21T23:29:09.716Z,97.80
2019-03-21T23:31:38.579Z,97.90
2019-03-21T23:34:07.358Z,98.00
2019-03-21T23:36:36.394Z,97.90
2019-03-21T23:39:05.631Z,97.90
2019-03-21T23:41:34.685Z,97.70
2019-03-21T23:44:03.783Z,97.80
2019-03-21T23:46:32.026Z,97.80
2019-03-21T23:49:00.597Z,97.80
2019-03-21T23:51:28.663Z,97.90
2019-03-21T23:53:57.093Z,98.10
2019-03-21T23:56:26.481Z,98.20
2019-03-21T23:58:54.836Z,98.30
